sensor_id;sensor_type;location;lat;lon;timestamp;P1;durP1;ratioP1;P2;durP2;ratioP2
67712;SDS011;54503;55.784;49.138;2022-07-25T00:02:19;37.60;;;20.70;;
67712;SDS011;54503;55.784;49.138;2022-07-25T00:07:23;35.17;;;18.70;;
67712;SDS011;54503;55.784;49.138;2022-07-25T00:12:29;43.08;;;20.00;;
67712;SDS011;54503;55.784;49.138;2022-07-25T00:17:47;35.33;;;19.12;;
67712;SDS011;54503;55.784;49.138;2022-07-25T00:22:52;39.40;;;19.60;;
67712;SDS011;54503;55.784;49.138;2022-07-25T00:27:57;38.00;;;19.60;;
67712;SDS011;54503;55.784;49.138;2022-07-25T00:33:17;37.33;;;20.48;;
67712;SDS011;54503;55.784;49.138;2022-07-25T00:38:36;34.13;;;19.53;;
67712;SDS011;54503;55.784;49.138;2022-07-25T00:43:56;39.80;;;20.60;;
67712;SDS011;54503;55.784;49.138;2022-07-25T00:49:02;38.55;;;19.52;;
67712;SDS011;54503;55.784;49.138;2022-07-25T00:54:07;36.33;;;19.47;;
67712;SDS011;54503;55.784;49.138;2022-07-25T00:59:25;36.50;;;18.80;;
67712;SDS011;54503;55.784;49.138;2022-07-25T01:04:31;35.80;;;20.40;;
67712;SDS011;54503;55.784;49.138;2022-07-25T01:09:50;39.53;;;19.52;;
67712;SDS011;54503;55.784;49.138;2022-07-25T01:14:56;40.33;;;19.30;;
67712;SDS011;54503;55.784;49.138;2022-07-25T01:25:35;36.98;;;18.07;;
67712;SDS011;54503;55.784;49.138;2022-07-25T01:30:41;39.95;;;16.52;;
67712;SDS011;54503;55.784;49.138;2022-07-25T01:36:00;37.60;;;16.30;;
67712;SDS011;54503;55.784;49.138;2022-07-25T01:41:19;40.83;;;18.17;;
67712;SDS011;54503;55.784;49.138;2022-07-25T01:46:38;40.30;;;17.90;;
67712;SDS011;54503;55.784;49.138;2022-07-25T01:51:57;42.20;;;17.20;;
67712;SDS011;54503;55.784;49.138;2022-07-25T01:57:03;46.02;;;17.17;;
67712;SDS011;54503;55.784;49.138;2022-07-25T02:02:13;41.23;;;16.77;;
67712;SDS011;54503;55.784;49.138;2022-07-25T02:07:18;41.10;;;16.10;;
67712;SDS011;54503;55.784;49.138;2022-07-25T02:12:37;38.00;;;17.10;;
67712;SDS011;54503;55.784;49.138;2022-07-25T02:17:43;37.10;;;16.50;;
67712;SDS011;54503;55.784;49.138;2022-07-25T02:22:48;40.87;;;18.43;;
67712;SDS011;54503;55.784;49.138;2022-07-25T02:28:03;49.50;;;23.75;;
67712;SDS011;54503;55.784;49.138;2022-07-25T02:33:22;53.23;;;24.23;;
67712;SDS011;54503;55.784;49.138;2022-07-25T02:39:00;46.73;;;21.57;;
67712;SDS011;54503;55.784;49.138;2022-07-25T02:44:05;57.90;;;23.83;;
67712;SDS011;54503;55.784;49.138;2022-07-25T02:49:24;50.15;;;25.37;;
67712;SDS011;54503;55.784;49.138;2022-07-25T02:54:30;67.47;;;27.30;;
67712;SDS011;54503;55.784;49.138;2022-07-25T02:59:36;55.88;;;27.90;;
67712;SDS011;54503;55.784;49.138;2022-07-25T03:04:54;50.67;;;28.38;;
67712;SDS011;54503;55.784;49.138;2022-07-25T03:09:59;57.75;;;29.50;;
67712;SDS011;54503;55.784;49.138;2022-07-25T03:15:18;54.40;;;29.07;;
67712;SDS011;54503;55.784;49.138;2022-07-25T03:20:23;49.35;;;28.10;;
67712;SDS011;54503;55.784;49.138;2022-07-25T03:25:41;51.28;;;27.55;;
67712;SDS011;54503;55.784;49.138;2022-07-25T03:30:46;45.95;;;24.37;;
67712;SDS011;54503;55.784;49.138;2022-07-25T03:35:52;42.57;;;24.43;;
67712;SDS011;54503;55.784;49.138;2022-07-25T03:41:11;44.10;;;24.65;;
67712;SDS011;54503;55.784;49.138;2022-07-25T03:46:30;45.92;;;24.25;;
67712;SDS011;54503;55.784;49.138;2022-07-25T03:52:02;40.03;;;22.90;;
67712;SDS011;54503;55.784;49.138;2022-07-25T03:57:07;43.10;;;21.35;;
67712;SDS011;54503;55.784;49.138;2022-07-25T04:02:14;39.80;;;22.03;;
67712;SDS011;54503;55.784;49.138;2022-07-25T04:07:28;45.78;;;22.17;;
67712;SDS011;54503;55.784;49.138;2022-07-25T04:12:49;38.60;;;21.33;;
67712;SDS011;54503;55.784;49.138;2022-07-25T04:18:08;41.10;;;21.63;;
67712;SDS011;54503;55.784;49.138;2022-07-25T04:23:27;38.05;;;21.70;;
67712;SDS011;54503;55.784;49.138;2022-07-25T04:28:42;42.65;;;24.35;;
67712;SDS011;54503;55.784;49.138;2022-07-25T04:33:51;39.70;;;23.30;;
67712;SDS011;54503;55.784;49.138;2022-07-25T04:38:56;41.85;;;22.45;;
67712;SDS011;54503;55.784;49.138;2022-07-25T04:49:37;40.15;;;17.17;;
67712;SDS011;54503;55.784;49.138;2022-07-25T04:54:42;43.87;;;18.25;;
67712;SDS011;54503;55.784;49.138;2022-07-25T05:05:23;33.73;;;13.73;;
67712;SDS011;54503;55.784;49.138;2022-07-25T05:10:28;21.82;;;10.63;;
67712;SDS011;54503;55.784;49.138;2022-07-25T05:15:48;28.57;;;13.55;;
67712;SDS011;54503;55.784;49.138;2022-07-25T05:20:53;27.82;;;12.70;;
67712;SDS011;54503;55.784;49.138;2022-07-25T05:26:12;15.10;;;9.53;;
67712;SDS011;54503;55.784;49.138;2022-07-25T05:31:17;17.60;;;9.70;;
67712;SDS011;54503;55.784;49.138;2022-07-25T05:37:12;13.10;;;7.37;;
67712;SDS011;54503;55.784;49.138;2022-07-25T05:42:32;25.35;;;9.95;;
67712;SDS011;54503;55.784;49.138;2022-07-25T05:47:37;24.10;;;11.07;;
67712;SDS011;54503;55.784;49.138;2022-07-25T05:52:57;21.37;;;12.23;;
67712;SDS011;54503;55.784;49.138;2022-07-25T05:58:02;21.60;;;8.60;;
67712;SDS011;54503;55.784;49.138;2022-07-25T06:03:08;16.07;;;9.93;;
67712;SDS011;54503;55.784;49.138;2022-07-25T06:08:27;23.00;;;9.68;;
67712;SDS011;54503;55.784;49.138;2022-07-25T06:13:33;20.07;;;9.17;;
67712;SDS011;54503;55.784;49.138;2022-07-25T06:18:51;21.30;;;9.27;;
67712;SDS011;54503;55.784;49.138;2022-07-25T06:23:57;20.97;;;9.15;;
67712;SDS011;54503;55.784;49.138;2022-07-25T06:29:15;19.37;;;8.60;;
67712;SDS011;54503;55.784;49.138;2022-07-25T06:34:21;15.08;;;8.70;;
67712;SDS011;54503;55.784;49.138;2022-07-25T06:39:40;23.97;;;10.07;;
67712;SDS011;54503;55.784;49.138;2022-07-25T06:45:02;28.45;;;11.75;;
67712;SDS011;54503;55.784;49.138;2022-07-25T06:50:20;28.05;;;11.43;;
67712;SDS011;54503;55.784;49.138;2022-07-25T06:55:39;20.43;;;9.00;;
67712;SDS011;54503;55.784;49.138;2022-07-25T07:00:44;26.60;;;11.00;;
67712;SDS011;54503;55.784;49.138;2022-07-25T07:05:49;16.42;;;7.58;;
67712;SDS011;54503;55.784;49.138;2022-07-25T07:11:07;187.57;;;14.87;;
67712;SDS011;54503;55.784;49.138;2022-07-25T07:16:12;33.75;;;8.43;;
67712;SDS011;54503;55.784;49.138;2022-07-25T07:21:31;12.10;;;6.53;;
67712;SDS011;54503;55.784;49.138;2022-07-25T07:26:51;14.80;;;7.10;;
67712;SDS011;54503;55.784;49.138;2022-07-25T07:32:16;12.73;;;6.20;;
67712;SDS011;54503;55.784;49.138;2022-07-25T07:37:35;13.03;;;5.30;;
67712;SDS011;54503;55.784;49.138;2022-07-25T07:42:41;9.73;;;6.25;;
67712;SDS011;54503;55.784;49.138;2022-07-25T07:47:47;14.50;;;5.47;;
67712;SDS011;54503;55.784;49.138;2022-07-25T07:53:03;14.00;;;6.23;;
67712;SDS011;54503;55.784;49.138;2022-07-25T07:58:22;14.80;;;5.80;;
67712;SDS011;54503;55.784;49.138;2022-07-25T08:03:43;10.05;;;6.20;;
67712;SDS011;54503;55.784;49.138;2022-07-25T08:08:49;14.38;;;6.05;;
67712;SDS011;54503;55.784;49.138;2022-07-25T08:14:09;10.93;;;5.70;;
67712;SDS011;54503;55.784;49.138;2022-07-25T08:19:28;15.73;;;6.27;;
67712;SDS011;54503;55.784;49.138;2022-07-25T08:24:47;12.60;;;6.53;;
67712;SDS011;54503;55.784;49.138;2022-07-25T08:30:11;22.02;;;7.30;;
67712;SDS011;54503;55.784;49.138;2022-07-25T08:35:17;358.77;;;39.77;;
67712;SDS011;54503;55.784;49.138;2022-07-25T08:40:26;62.65;;;12.80;;
67712;SDS011;54503;55.784;49.138;2022-07-25T08:45:45;22.37;;;9.85;;
67712;SDS011;54503;55.784;49.138;2022-07-25T08:50:51;18.02;;;10.63;;
67712;SDS011;54503;55.784;49.138;2022-07-25T08:56:20;12.88;;;6.47;;
67712;SDS011;54503;55.784;49.138;2022-07-25T09:01:26;16.23;;;9.37;;
67712;SDS011;54503;55.784;49.138;2022-07-25T09:12:30;8.70;;;5.62;;
67712;SDS011;54503;55.784;49.138;2022-07-25T09:17:54;13.30;;;8.23;;
67712;SDS011;54503;55.784;49.138;2022-07-25T09:23:00;19.42;;;7.92;;
67712;SDS011;54503;55.784;49.138;2022-07-25T09:28:24;14.47;;;10.33;;
67712;SDS011;54503;55.784;49.138;2022-07-25T09:33:56;17.60;;;7.07;;
67712;SDS011;54503;55.784;49.138;2022-07-25T09:39:02;19.73;;;10.23;;
67712;SDS011;54503;55.784;49.138;2022-07-25T09:44:22;14.43;;;7.72;;
67712;SDS011;54503;55.784;49.138;2022-07-25T09:55:07;25.13;;;10.23;;
67712;SDS011;54503;55.784;49.138;2022-07-25T10:00:31;21.85;;;10.60;;
67712;SDS011;54503;55.784;49.138;2022-07-25T10:17:08;15.03;;;8.10;;
67712;SDS011;54503;55.784;49.138;2022-07-25T10:28:08;19.90;;;8.88;;
67712;SDS011;54503;55.784;49.138;2022-07-25T10:33:14;20.80;;;10.08;;
67712;SDS011;54503;55.784;49.138;2022-07-25T10:44:01;29.27;;;10.18;;
67712;SDS011;54503;55.784;49.138;2022-07-25T10:49:06;51.40;;;11.55;;
67712;SDS011;54503;55.784;49.138;2022-07-25T10:54:37;14.30;;;8.20;;
67712;SDS011;54503;55.784;49.138;2022-07-25T10:59:42;14.60;;;8.50;;
67712;SDS011;54503;55.784;49.138;2022-07-25T11:10:27;17.82;;;9.85;;
67712;SDS011;54503;55.784;49.138;2022-07-25T11:15:46;15.90;;;8.20;;
67712;SDS011;54503;55.784;49.138;2022-07-25T11:21:06;15.00;;;7.70;;
67712;SDS011;54503;55.784;49.138;2022-07-25T11:26:12;20.02;;;8.13;;
67712;SDS011;54503;55.784;49.138;2022-07-25T11:31:18;20.32;;;7.67;;
67712;SDS011;54503;55.784;49.138;2022-07-25T11:36:37;14.75;;;8.28;;
67712;SDS011;54503;55.784;49.138;2022-07-25T11:41:42;14.83;;;7.87;;
67712;SDS011;54503;55.784;49.138;2022-07-25T11:46:47;15.10;;;7.72;;
67712;SDS011;54503;55.784;49.138;2022-07-25T12:08:22;19.10;;;7.85;;
67712;SDS011;54503;55.784;49.138;2022-07-25T12:14:00;30.05;;;9.38;;
67712;SDS011;54503;55.784;49.138;2022-07-25T12:18:59;12.07;;;6.47;;
67712;SDS011;54503;55.784;49.138;2022-07-25T12:24:18;11.50;;;6.60;;
67712;SDS011;54503;55.784;49.138;2022-07-25T12:29:36;10.28;;;6.80;;
67712;SDS011;54503;55.784;49.138;2022-07-25T12:34:41;17.37;;;7.40;;
67712;SDS011;54503;55.784;49.138;2022-07-25T12:39:47;12.27;;;6.73;;
67712;SDS011;54503;55.784;49.138;2022-07-25T12:44:53;11.80;;;7.10;;
67712;SDS011;54503;55.784;49.138;2022-07-25T12:50:25;12.95;;;7.40;;
67712;SDS011;54503;55.784;49.138;2022-07-25T12:55:31;19.12;;;8.30;;
67712;SDS011;54503;55.784;49.138;2022-07-25T13:00:35;13.32;;;6.72;;
67712;SDS011;54503;55.784;49.138;2022-07-25T13:05:41;16.70;;;6.60;;
67712;SDS011;54503;55.784;49.138;2022-07-25T13:10:46;27.50;;;7.75;;
67712;SDS011;54503;55.784;49.138;2022-07-25T13:16:03;15.08;;;6.58;;
67712;SDS011;54503;55.784;49.138;2022-07-25T13:21:09;10.20;;;6.85;;
67712;SDS011;54503;55.784;49.138;2022-07-25T13:26:15;14.93;;;6.83;;
67712;SDS011;54503;55.784;49.138;2022-07-25T13:31:40;15.48;;;10.78;;
67712;SDS011;54503;55.784;49.138;2022-07-25T13:36:59;19.80;;;7.42;;
67712;SDS011;54503;55.784;49.138;2022-07-25T13:42:05;27.82;;;13.65;;
67712;SDS011;54503;55.784;49.138;2022-07-25T13:47:35;17.70;;;9.03;;
67712;SDS011;54503;55.784;49.138;2022-07-25T13:52:40;12.87;;;6.60;;
67712;SDS011;54503;55.784;49.138;2022-07-25T13:58:00;10.37;;;6.40;;
67712;SDS011;54503;55.784;49.138;2022-07-25T14:03:06;15.65;;;9.80;;
67712;SDS011;54503;55.784;49.138;2022-07-25T14:08:12;12.25;;;7.03;;
67712;SDS011;54503;55.784;49.138;2022-07-25T14:13:33;12.47;;;6.37;;
67712;SDS011;54503;55.784;49.138;2022-07-25T14:18:38;14.05;;;7.15;;
67712;SDS011;54503;55.784;49.138;2022-07-25T14:23:57;13.77;;;7.83;;
67712;SDS011;54503;55.784;49.138;2022-07-25T14:29:16;12.68;;;7.42;;
67712;SDS011;54503;55.784;49.138;2022-07-25T14:34:36;22.22;;;10.72;;
67712;SDS011;54503;55.784;49.138;2022-07-25T14:40:09;19.50;;;8.23;;
67712;SDS011;54503;55.784;49.138;2022-07-25T14:45:15;23.67;;;9.17;;
67712;SDS011;54503;55.784;49.138;2022-07-25T14:50:21;28.35;;;8.15;;
67712;SDS011;54503;55.784;49.138;2022-07-25T14:55:27;17.17;;;7.65;;
67712;SDS011;54503;55.784;49.138;2022-07-25T15:00:56;16.57;;;7.78;;
67712;SDS011;54503;55.784;49.138;2022-07-25T15:06:02;13.80;;;7.77;;
67712;SDS011;54503;55.784;49.138;2022-07-25T15:11:09;13.80;;;8.50;;
67712;SDS011;54503;55.784;49.138;2022-07-25T15:16:29;19.50;;;10.50;;
67712;SDS011;54503;55.784;49.138;2022-07-25T15:21:59;21.17;;;7.92;;
67712;SDS011;54503;55.784;49.138;2022-07-25T15:27:04;15.75;;;7.55;;
67712;SDS011;54503;55.784;49.138;2022-07-25T15:32:10;24.10;;;10.77;;
67712;SDS011;54503;55.784;49.138;2022-07-25T15:37:32;47.80;;;11.17;;
67712;SDS011;54503;55.784;49.138;2022-07-25T15:42:38;26.35;;;12.25;;
67712;SDS011;54503;55.784;49.138;2022-07-25T15:47:43;20.85;;;8.70;;
67712;SDS011;54503;55.784;49.138;2022-07-25T15:53:15;16.75;;;8.60;;
67712;SDS011;54503;55.784;49.138;2022-07-25T15:58:22;21.70;;;8.70;;
67712;SDS011;54503;55.784;49.138;2022-07-25T16:03:55;17.87;;;8.60;;
67712;SDS011;54503;55.784;49.138;2022-07-25T16:09:01;19.73;;;8.23;;
67712;SDS011;54503;55.784;49.138;2022-07-25T16:14:06;22.15;;;8.15;;
67712;SDS011;54503;55.784;49.138;2022-07-25T16:19:25;31.97;;;13.57;;
67712;SDS011;54503;55.784;49.138;2022-07-25T16:24:53;22.63;;;11.23;;
67712;SDS011;54503;55.784;49.138;2022-07-25T16:29:58;17.05;;;8.60;;
67712;SDS011;54503;55.784;49.138;2022-07-25T16:35:17;18.02;;;9.45;;
67712;SDS011;54503;55.784;49.138;2022-07-25T16:40:36;18.20;;;8.68;;
67712;SDS011;54503;55.784;49.138;2022-07-25T16:45:59;18.55;;;8.35;;
67712;SDS011;54503;55.784;49.138;2022-07-25T16:51:04;20.73;;;11.83;;
67712;SDS011;54503;55.784;49.138;2022-07-25T16:56:10;28.12;;;14.45;;
67712;SDS011;54503;55.784;49.138;2022-07-25T17:01:29;18.45;;;9.33;;
67712;SDS011;54503;55.784;49.138;2022-07-25T17:17:25;28.20;;;13.78;;
67712;SDS011;54503;55.784;49.138;2022-07-25T17:22:45;27.47;;;12.50;;
67712;SDS011;54503;55.784;49.138;2022-07-25T17:28:02;27.97;;;12.50;;
67712;SDS011;54503;55.784;49.138;2022-07-25T17:33:08;31.60;;;15.43;;
67712;SDS011;54503;55.784;49.138;2022-07-25T17:38:26;21.97;;;10.55;;
67712;SDS011;54503;55.784;49.138;2022-07-25T17:43:32;135.60;;;18.98;;
67712;SDS011;54503;55.784;49.138;2022-07-25T17:48:51;35.13;;;14.80;;
67712;SDS011;54503;55.784;49.138;2022-07-25T17:53:56;18.23;;;10.00;;
67712;SDS011;54503;55.784;49.138;2022-07-25T17:59:15;13.10;;;7.70;;
67712;SDS011;54503;55.784;49.138;2022-07-25T18:04:20;15.72;;;7.42;;
67712;SDS011;54503;55.784;49.138;2022-07-25T18:09:39;17.05;;;8.00;;
67712;SDS011;54503;55.784;49.138;2022-07-25T18:14:58;24.45;;;8.05;;
67712;SDS011;54503;55.784;49.138;2022-07-25T18:20:04;14.10;;;6.67;;
67712;SDS011;54503;55.784;49.138;2022-07-25T18:25:24;10.58;;;5.60;;
67712;SDS011;54503;55.784;49.138;2022-07-25T18:30:32;14.20;;;6.00;;
67712;SDS011;54503;55.784;49.138;2022-07-25T18:35:37;17.00;;;5.43;;
67712;SDS011;54503;55.784;49.138;2022-07-25T18:40:41;12.95;;;5.50;;
67712;SDS011;54503;55.784;49.138;2022-07-25T18:46:15;11.30;;;5.47;;
67712;SDS011;54503;55.784;49.138;2022-07-25T18:51:20;13.10;;;5.50;;
67712;SDS011;54503;55.784;49.138;2022-07-25T18:56:25;14.33;;;5.50;;
67712;SDS011;54503;55.784;49.138;2022-07-25T19:01:45;11.25;;;5.20;;
67712;SDS011;54503;55.784;49.138;2022-07-25T19:07:15;19.87;;;5.55;;
67712;SDS011;54503;55.784;49.138;2022-07-25T19:12:21;13.45;;;5.08;;
67712;SDS011;54503;55.784;49.138;2022-07-25T19:17:40;13.57;;;5.30;;
67712;SDS011;54503;55.784;49.138;2022-07-25T19:22:46;12.13;;;5.40;;
67712;SDS011;54503;55.784;49.138;2022-07-25T19:28:05;13.22;;;6.92;;
67712;SDS011;54503;55.784;49.138;2022-07-25T19:33:24;10.90;;;6.33;;
67712;SDS011;54503;55.784;49.138;2022-07-25T19:38:30;12.82;;;5.95;;
67712;SDS011;54503;55.784;49.138;2022-07-25T19:43:49;11.35;;;5.70;;
67712;SDS011;54503;55.784;49.138;2022-07-25T19:49:16;14.23;;;5.65;;
67712;SDS011;54503;55.784;49.138;2022-07-25T19:54:21;13.17;;;6.37;;
67712;SDS011;54503;55.784;49.138;2022-07-25T19:59:40;12.87;;;5.30;;
67712;SDS011;54503;55.784;49.138;2022-07-25T20:04:45;14.53;;;6.85;;
67712;SDS011;54503;55.784;49.138;2022-07-25T20:09:50;18.60;;;9.88;;
67712;SDS011;54503;55.784;49.138;2022-07-25T20:14:56;22.37;;;11.80;;
67712;SDS011;54503;55.784;49.138;2022-07-25T20:20:13;21.23;;;10.23;;
67712;SDS011;54503;55.784;49.138;2022-07-25T20:25:19;20.85;;;10.85;;
67712;SDS011;54503;55.784;49.138;2022-07-25T20:30:24;22.42;;;10.60;;
67712;SDS011;54503;55.784;49.138;2022-07-25T20:35:42;20.72;;;10.28;;
67712;SDS011;54503;55.784;49.138;2022-07-25T20:40:47;22.43;;;11.30;;
67712;SDS011;54503;55.784;49.138;2022-07-25T20:46:26;20.70;;;9.50;;
67712;SDS011;54503;55.784;49.138;2022-07-25T20:51:31;24.23;;;11.28;;
67712;SDS011;54503;55.784;49.138;2022-07-25T20:56:35;21.48;;;10.93;;
67712;SDS011;54503;55.784;49.138;2022-07-25T21:01:40;24.47;;;10.93;;
67712;SDS011;54503;55.784;49.138;2022-07-25T21:06:59;26.68;;;10.72;;
67712;SDS011;54503;55.784;49.138;2022-07-25T21:12:18;18.92;;;9.63;;
67712;SDS011;54503;55.784;49.138;2022-07-25T21:17:25;25.93;;;10.00;;
67712;SDS011;54503;55.784;49.138;2022-07-25T21:22:44;21.37;;;9.10;;
67712;SDS011;54503;55.784;49.138;2022-07-25T21:27:48;17.42;;;9.48;;
67712;SDS011;54503;55.784;49.138;2022-07-25T21:33:06;26.57;;;9.60;;
67712;SDS011;54503;55.784;49.138;2022-07-25T21:38:11;23.97;;;9.27;;
67712;SDS011;54503;55.784;49.138;2022-07-25T21:48:57;22.30;;;11.12;;
67712;SDS011;54503;55.784;49.138;2022-07-25T21:54:21;31.27;;;11.80;;
67712;SDS011;54503;55.784;49.138;2022-07-25T21:59:41;31.23;;;12.95;;
67712;SDS011;54503;55.784;49.138;2022-07-25T22:04:46;32.83;;;18.02;;
67712;SDS011;54503;55.784;49.138;2022-07-25T22:10:06;36.70;;;15.40;;
67712;SDS011;54503;55.784;49.138;2022-07-25T22:15:12;26.00;;;12.10;;
67712;SDS011;54503;55.784;49.138;2022-07-25T22:20:31;30.43;;;10.68;;
67712;SDS011;54503;55.784;49.138;2022-07-25T22:25:36;35.70;;;10.80;;
67712;SDS011;54503;55.784;49.138;2022-07-25T22:30:56;26.90;;;10.30;;
67712;SDS011;54503;55.784;49.138;2022-07-25T22:36:01;23.65;;;9.53;;
67712;SDS011;54503;55.784;49.138;2022-07-25T22:41:20;24.60;;;9.40;;
67712;SDS011;54503;55.784;49.138;2022-07-25T22:46:40;21.50;;;8.90;;
67712;SDS011;54503;55.784;49.138;2022-07-25T22:51:45;20.55;;;8.55;;
67712;SDS011;54503;55.784;49.138;2022-07-25T22:56:51;15.43;;;8.27;;
67712;SDS011;54503;55.784;49.138;2022-07-25T23:02:21;15.97;;;7.53;;
67712;SDS011;54503;55.784;49.138;2022-07-25T23:07:27;20.40;;;10.10;;
67712;SDS011;54503;55.784;49.138;2022-07-25T23:12:46;20.72;;;9.30;;
67712;SDS011;54503;55.784;49.138;2022-07-25T23:18:05;18.67;;;8.30;;
67712;SDS011;54503;55.784;49.138;2022-07-25T23:23:24;19.00;;;8.50;;
67712;SDS011;54503;55.784;49.138;2022-07-25T23:28:58;14.20;;;7.50;;
67712;SDS011;54503;55.784;49.138;2022-07-25T23:34:03;15.68;;;7.33;;
67712;SDS011;54503;55.784;49.138;2022-07-25T23:39:22;10.00;;;6.77;;
67712;SDS011;54503;55.784;49.138;2022-07-25T23:44:54;11.17;;;7.17;;
67712;SDS011;54503;55.784;49.138;2022-07-25T23:49:59;13.30;;;7.00;;
67712;SDS011;54503;55.784;49.138;2022-07-25T23:55:18;10.68;;;7.12;;
